Humidity-temperature Sensor

Selected Measurement Type: Air Temperature

 
Air Temperature [°C]     6 entries per hour
Showing data from 4/4/2023 (00:00:00 Z) to 3/28/2023 (00:01:00 Z)
Previous Next [ Day | 3-Days | 7-Days ]
First Last
Prev [ Day | 3-Days | 7-Days ] Next
First Last

Start Time:     :
End Time:     :     
Time (in GMT) :00 :50 :40 :30 :20 :10
Previous Next [ Day | 3-Days | 7-Days ]
First Last
Prev [ Day | 3-Days | 7-Days ] Next
First Last


123 => good data
MM => data is determined as missing
-- => data not received/configured
Back to Top Back to Top
4/4/2023 00:00 to 23:10 27.46 27.49 27.53 27.49 27.56 27.50
4/3/2023 23:00 to 22:10 27.61 27.40 27.50 27.48 27.44 26.90
4/3/2023 22:00 to 21:10 27.17 27.05 26.94 26.96 26.87 27.11
4/3/2023 21:00 to 20:10 27.05 26.95 27.19 27.17 27.11 27.35
4/3/2023 20:00 to 19:10 26.99 26.63 26.30 25.48 25.48 26.10
4/3/2023 19:00 to 18:10 27.07 27.43 27.39 27.30 27.43 27.50
4/3/2023 18:00 to 17:10 27.53 27.35 27.75 27.54 27.47 27.40
4/3/2023 17:00 to 16:10 27.52 27.77 27.46 27.64 27.48 27.53
4/3/2023 16:00 to 15:10 27.56 27.45 27.39 27.39 27.45 27.35
4/3/2023 15:00 to 14:10 27.34 27.32 27.41 27.27 27.30 27.18
4/3/2023 14:00 to 13:10 27.18 27.22 27.07 26.89 26.84 26.94
4/3/2023 13:00 to 12:10 26.70 26.78 26.78 26.69 26.84 26.75
4/3/2023 12:00 to 11:10 26.76 26.56 26.75 26.81 26.64 26.88
4/3/2023 11:00 to 10:10 26.72 26.74 26.83 26.83 26.87 26.89
4/3/2023 10:00 to 9:10 26.85 26.84 26.93 26.77 26.90 26.91
4/3/2023 09:00 to 8:10 26.85 26.91 26.85 27.02 26.94 27.02
4/3/2023 08:00 to 7:10 27.04 27.06 26.93 26.95 27.18 27.13
4/3/2023 07:00 to 6:10 27.13 27.14 27.12 27.10 27.20 27.09
4/3/2023 06:00 to 5:10 27.13 27.19 27.09 27.10 27.13 27.11
4/3/2023 05:00 to 4:10 27.16 27.09 27.04 27.12 27.14 27.18
4/3/2023 04:00 to 3:10 27.10 27.09 27.16 27.16 27.21 27.13
4/3/2023 03:00 to 2:10 27.20 27.12 27.18 27.02 27.19 27.07
4/3/2023 02:00 to 1:10 27.08 27.09 27.19 27.15 27.23 27.17
4/3/2023 01:00 to 0:10 27.34 27.32 27.33 27.29 27.34 27.26
4/3/2023 00:00 to 23:10 27.40 27.50 27.34 27.34 27.31 27.34
4/2/2023 23:00 to 22:10 27.36 27.27 27.27 27.46 27.26 27.16
4/2/2023 22:00 to 21:10 27.34 27.32 27.24 27.36 27.35 27.23
4/2/2023 21:00 to 20:10 27.25 27.33 27.30 27.38 27.23 27.27
4/2/2023 20:00 to 19:10 27.30 27.24 27.24 27.21 27.36 27.33
4/2/2023 19:00 to 18:10 27.41 27.17 27.30 27.36 27.39 27.35
4/2/2023 18:00 to 17:10 27.33 27.37 27.29 27.29 27.51 27.44
4/2/2023 17:00 to 16:10 27.40 27.25 27.22 27.61 27.42 27.28
4/2/2023 16:00 to 15:10 27.22 27.44 27.34 27.42 27.31 27.33
4/2/2023 15:00 to 14:10 27.14 27.20 27.02 27.19 27.17 27.26
4/2/2023 14:00 to 13:10 26.94 26.95 26.90 26.82 26.84 26.92
4/2/2023 13:00 to 12:10 27.08 26.83 26.87 27.01 27.01 26.88
4/2/2023 12:00 to 11:10 26.92 26.93 26.90 27.07 26.89 27.06
4/2/2023 11:00 to 10:10 26.92 26.98 26.95 27.00 27.03 27.05
4/2/2023 10:00 to 9:10 27.06 27.04 27.09 27.13 27.14 27.08
4/2/2023 09:00 to 8:10 27.28 27.22 27.20 27.23 27.21 27.20
4/2/2023 08:00 to 7:10 27.19 27.18 27.33 27.17 27.37 27.35
4/2/2023 07:00 to 6:10 27.28 27.32 27.34 27.22 27.33 27.36
4/2/2023 06:00 to 5:10 27.17 27.32 27.24 27.29 27.34 27.41
4/2/2023 05:00 to 4:10 27.47 27.43 27.30 27.02 27.29 27.31
4/2/2023 04:00 to 3:10 27.18 27.35 27.25 27.24 27.30 27.47
4/2/2023 03:00 to 2:10 27.36 27.44 27.47 27.42 27.46 27.44
4/2/2023 02:00 to 1:10 27.41 27.36 27.49 27.33 27.28 27.17
4/2/2023 01:00 to 0:10 27.31 27.27 27.30 27.35 27.21 27.09
4/2/2023 00:00 to 23:10 27.35 27.34 27.48 27.53 27.49 27.36
4/1/2023 23:00 to 22:10 27.41 27.42 27.31 27.27 27.18 27.22
4/1/2023 22:00 to 21:10 27.15 27.33 27.29 27.28 27.22 27.10
4/1/2023 21:00 to 20:10 27.16 27.17 26.94 27.06 27.04 27.02
4/1/2023 20:00 to 19:10 26.90 26.91 26.92 26.88 26.87 26.89
4/1/2023 19:00 to 18:10 26.67 26.37 26.48 26.42 26.43 26.25
4/1/2023 18:00 to 17:10 26.33 26.30 26.53 26.79 27.27 27.23
4/1/2023 17:00 to 16:10 27.22 27.23 27.22 27.19 27.19 27.19
4/1/2023 16:00 to 15:10 27.06 27.04 27.09 27.11 27.05 27.18
4/1/2023 15:00 to 14:10 27.05 27.07 27.02 26.95 26.93 27.02
4/1/2023 14:00 to 13:10 26.85 26.84 26.78 26.78 26.72 26.61
4/1/2023 13:00 to 12:10 26.79 26.62 26.50 26.67 26.68 26.77
4/1/2023 12:00 to 11:10 26.74 26.80 26.81 26.80 26.91 26.84
4/1/2023 11:00 to 10:10 26.86 26.96 26.92 26.89 26.87 26.97
4/1/2023 10:00 to 9:10 26.89 26.94 27.00 26.96 27.06 27.11
4/1/2023 09:00 to 8:10 27.16 26.94 27.02 27.06 27.16 27.19
4/1/2023 08:00 to 7:10 27.12 27.20 27.14 27.20 27.13 27.11
4/1/2023 07:00 to 6:10 27.15 27.25 27.29 27.36 27.38 27.25
4/1/2023 06:00 to 5:10 27.45 27.36 27.52 27.34 27.44 27.44
4/1/2023 05:00 to 4:10 27.49 27.31 27.46 27.39 27.41 27.37
4/1/2023 04:00 to 3:10 27.57 27.45 27.46 27.44 27.47 27.39
4/1/2023 03:00 to 2:10 27.38 27.34 27.41 27.39 27.45 27.43
4/1/2023 02:00 to 1:10 27.48 27.49 27.48 27.51 27.48 27.46
4/1/2023 01:00 to 0:10 27.52 27.56 27.46 27.62 27.44 27.55
4/1/2023 00:00 to 23:10 27.56 27.57 27.60 27.67 27.47 27.58
3/31/2023 23:00 to 22:10 27.48 27.43 27.48 27.47 27.46 27.36
3/31/2023 22:00 to 21:10 27.36 27.45 27.40 27.35 27.41 27.45
3/31/2023 21:00 to 20:10 27.53 27.55 27.35 27.38 27.35 27.38
3/31/2023 20:00 to 19:10 27.40 27.30 27.42 27.25 27.26 27.37
3/31/2023 19:00 to 18:10 27.31 27.19 27.31 27.32 27.31 27.32
3/31/2023 18:00 to 17:10 27.31 27.38 27.24 27.39 27.23 27.29
3/31/2023 17:00 to 16:10 27.39 27.40 27.26 27.29 27.21 27.26
3/31/2023 16:00 to 15:10 27.29 27.35 27.41 27.28 27.31 27.19
3/31/2023 15:00 to 14:10 27.29 27.21 27.09 27.31 27.13 27.17
3/31/2023 14:00 to 13:10 27.21 27.15 26.93 26.94 27.06 27.04
3/31/2023 13:00 to 12:10 26.63 26.68 26.59 26.64 26.58 26.93
3/31/2023 12:00 to 11:10 26.90 26.93 26.87 26.97 26.85 26.86
3/31/2023 11:00 to 10:10 26.83 26.87 26.88 27.02 26.90 26.86
3/31/2023 10:00 to 9:10 26.91 26.96 26.89 27.08 27.02 26.99
3/31/2023 09:00 to 8:10 26.91 27.09 27.00 27.09 26.98 27.12
3/31/2023 08:00 to 7:10 27.19 27.10 27.21 27.17 27.20 27.20
3/31/2023 07:00 to 6:10 27.22 27.21 27.30 27.35 27.26 27.30
3/31/2023 06:00 to 5:10 27.21 27.37 27.35 27.34 27.59 27.27
3/31/2023 05:00 to 4:10 27.27 27.31 27.46 27.21 27.34 27.37
3/31/2023 04:00 to 3:10 27.37 27.35 27.35 27.50 27.47 27.30
3/31/2023 03:00 to 2:10 27.29 27.39 27.38 27.32 27.30 27.32
3/31/2023 02:00 to 1:10 27.31 27.36 27.46 27.51 27.36 27.61
3/31/2023 01:00 to 0:10 27.52 27.65 27.48 27.74 27.66 27.65
3/31/2023 00:00 to 23:10 27.73 27.78 27.66 27.76 27.75 27.69
3/30/2023 23:00 to 22:10 27.79 27.62 27.65 27.57 27.63 27.61
3/30/2023 22:00 to 21:10 27.61 27.48 27.62 27.54 27.50 27.44
3/30/2023 21:00 to 20:10 27.57 27.45 27.38 27.45 27.35 27.37
3/30/2023 20:00 to 19:10 27.45 27.44 27.41 27.35 27.46 27.30
3/30/2023 19:00 to 18:10 27.36 27.39 27.40 27.33 27.33 27.49
3/30/2023 18:00 to 17:10 27.49 27.51 27.42 27.34 27.49 27.40
3/30/2023 17:00 to 16:10 27.49 27.35 27.37 27.39 27.38 26.84
3/30/2023 16:00 to 15:10 26.90 26.63 26.13 25.60 25.13 25.18
3/30/2023 15:00 to 14:10 25.31 25.34 25.29 25.26 26.24 26.33
3/30/2023 14:00 to 13:10 26.15 25.72 25.49 25.77 26.42 26.26
3/30/2023 13:00 to 12:10 26.11 26.30 27.14 27.05 27.15 27.09
3/30/2023 12:00 to 11:10 27.11 27.17 27.11 26.96 27.09 27.19
3/30/2023 11:00 to 10:10 26.93 26.90 27.05 27.04 27.15 27.09
3/30/2023 10:00 to 9:10 27.16 27.18 27.16 27.13 27.07 27.25
3/30/2023 09:00 to 8:10 27.19 27.13 27.05 27.27 27.13 27.19
3/30/2023 08:00 to 7:10 27.19 27.26 27.21 27.26 27.39 27.29
3/30/2023 07:00 to 6:10 27.38 27.34 27.45 27.53 27.43 27.49
3/30/2023 06:00 to 5:10 27.49 27.53 27.44 27.42 27.46 27.44
3/30/2023 05:00 to 4:10 27.51 27.36 27.48 27.48 27.44 27.46
3/30/2023 04:00 to 3:10 27.45 27.56 27.42 27.43 27.48 27.40
3/30/2023 03:00 to 2:10 27.42 27.39 27.43 27.43 27.43 27.45
3/30/2023 02:00 to 1:10 27.50 27.49 27.54 27.44 27.51 27.57
3/30/2023 01:00 to 0:10 27.63 27.69 27.71 27.57 27.65 27.75
3/30/2023 00:00 to 23:10 27.68 27.73 27.65 27.55 27.91 27.69
3/29/2023 23:00 to 22:10 27.73 27.67 27.74 27.74 27.66 27.56
3/29/2023 22:00 to 21:10 27.66 27.59 27.54 27.66 27.60 27.53
3/29/2023 21:00 to 20:10 27.79 27.56 27.82 27.71 27.64 27.60
3/29/2023 20:00 to 19:10 27.67 27.64 27.48 27.60 27.73 27.65
3/29/2023 19:00 to 18:10 27.69 27.41 27.40 27.42 27.54 27.59
3/29/2023 18:00 to 17:10 27.53 27.61 27.53 27.34 27.29 27.48
3/29/2023 17:00 to 16:10 27.42 27.49 27.40 27.38 27.56 27.46
3/29/2023 16:00 to 15:10 27.55 27.41 27.37 27.34 27.49 27.41
3/29/2023 15:00 to 14:10 27.49 27.28 27.56 27.48 27.20 27.36
3/29/2023 14:00 to 13:10 27.12 27.07 26.95 27.01 26.88 26.92
3/29/2023 13:00 to 12:10 26.97 27.00 26.97 26.87 26.90 26.94
3/29/2023 12:00 to 11:10 27.01 27.01 26.83 27.00 27.04 26.86
3/29/2023 11:00 to 10:10 27.08 26.96 26.97 27.04 26.91 27.01
3/29/2023 10:00 to 9:10 27.01 26.99 27.20 27.20 27.07 27.10
3/29/2023 09:00 to 8:10 27.09 27.17 27.18 27.14 27.32 27.20
3/29/2023 08:00 to 7:10 27.27 27.29 27.23 27.22 27.23 27.43
3/29/2023 07:00 to 6:10 27.38 27.43 27.32 27.44 27.38 27.43
3/29/2023 06:00 to 5:10 27.47 27.42 27.47 27.50 27.45 27.57
3/29/2023 05:00 to 4:10 -- -- -- -- -- --
3/29/2023 04:00 to 3:10 27.48 27.71 27.60 27.62 27.52 27.59
3/29/2023 03:00 to 2:10 27.60 27.57 27.53 27.68 27.71 27.53
3/29/2023 02:00 to 1:10 27.69 27.66 27.54 27.55 27.67 27.63
3/29/2023 01:00 to 0:10 27.68 27.75 27.87 27.84 27.74 27.98
3/29/2023 00:00 to 23:10 27.82 27.86 28.03 27.99 28.08 27.94
3/28/2023 23:00 to 22:10 27.91 27.99 28.04 27.95 28.11 27.89
3/28/2023 22:00 to 21:10 27.98 27.89 27.92 27.96 27.79 27.86
3/28/2023 21:00 to 20:10 27.90 27.84 27.83 27.80 27.86 27.81
3/28/2023 20:00 to 19:10 27.73 27.73 27.75 27.79 27.79 27.90
3/28/2023 19:00 to 18:10 27.98 27.89 27.73 27.48 27.21 27.85
3/28/2023 18:00 to 17:10 27.89 27.94 27.88 27.82 27.83 27.79
3/28/2023 17:00 to 16:10 27.37 27.39 27.27 27.30 27.27 26.81
3/28/2023 16:00 to 15:10 26.66 26.64 26.31 26.31 26.01 25.90
3/28/2023 15:00 to 14:10 25.81 25.78 26.10 26.12 26.01 25.84
3/28/2023 14:00 to 13:10 25.64 25.51 25.31 25.15 25.61 26.15
3/28/2023 13:00 to 12:10 26.20 26.16 26.12 25.75 25.71 25.52
3/28/2023 12:00 to 11:10 25.74 26.03 26.50 26.36 26.34 26.29
3/28/2023 11:00 to 10:10 26.37 26.35 26.56 26.52 26.41 26.21
3/28/2023 10:00 to 9:10 26.28 26.26 25.97 26.36 26.37 26.30
3/28/2023 09:00 to 8:10 26.12 26.19 26.23 26.11 26.16 26.06
3/28/2023 08:00 to 7:10 26.11 25.95 25.98 25.97 25.88 25.95
3/28/2023 07:00 to 6:10 25.81 25.80 25.79 25.71 25.59 25.57
3/28/2023 06:00 to 5:10 25.60 25.55 25.48 25.49 25.50 25.46
3/28/2023 05:00 to 4:10 25.55 25.59 25.73 25.77 25.60 25.47
3/28/2023 04:00 to 3:10 25.40 25.36 25.22 25.26 25.24 25.20
3/28/2023 03:00 to 2:10 25.01 24.92 24.96 24.86 24.93 24.77
3/28/2023 02:00 to 1:10 24.69 24.57 24.62 24.67 24.64 24.55
3/28/2023 01:00 to 0:10 24.47 24.40 24.51 24.46 24.12 23.88